sensor_id;sensor_type;location;lat;lon;timestamp;temperature;humidity
41664;DHT22;27353;50.906;7.248;2024-01-15T00:02:12;0.90;99.90
41664;DHT22;27353;50.906;7.248;2024-01-15T00:04:38;1.00;99.90
41664;DHT22;27353;50.906;7.248;2024-01-15T00:07:05;1.00;99.90
41664;DHT22;27353;50.906;7.248;2024-01-15T00:09:30;1.00;99.90
41664;DHT22;27353;50.906;7.248;2024-01-15T00:11:56;0.90;99.90
41664;DHT22;27353;50.906;7.248;2024-01-15T00:14:22;0.90;99.90
41664;DHT22;27353;50.906;7.248;2024-01-15T00:16:48;1.00;99.90
41664;DHT22;27353;50.906;7.248;2024-01-15T00:19:16;1.00;99.90
41664;DHT22;27353;50.906;7.248;2024-01-15T00:21:41;1.00;99.90
41664;DHT22;27353;50.906;7.248;2024-01-15T00:24:08;1.00;99.90
41664;DHT22;27353;50.906;7.248;2024-01-15T00:26:33;0.90;99.90
41664;DHT22;27353;50.906;7.248;2024-01-15T00:28:59;0.90;99.90
41664;DHT22;27353;50.906;7.248;2024-01-15T00:31:25;0.90;99.90
41664;DHT22;27353;50.906;7.248;2024-01-15T00:33:50;0.90;99.90
41664;DHT22;27353;50.906;7.248;2024-01-15T00:36:16;0.90;99.90
41664;DHT22;27353;50.906;7.248;2024-01-15T00:38:42;0.90;99.90
41664;DHT22;27353;50.906;7.248;2024-01-15T00:41:09;0.80;99.90
41664;DHT22;27353;50.906;7.248;2024-01-15T00:43:34;0.80;99.90
41664;DHT22;27353;50.906;7.248;2024-01-15T00:46:02;0.70;99.90
41664;DHT22;27353;50.906;7.248;2024-01-15T00:48:28;0.80;99.90
41664;DHT22;27353;50.906;7.248;2024-01-15T00:50:54;0.80;99.90
41664;DHT22;27353;50.906;7.248;2024-01-15T00:53:20;0.80;99.90
41664;DHT22;27353;50.906;7.248;2024-01-15T00:55:48;0.80;99.90
41664;DHT22;27353;50.906;7.248;2024-01-15T00:58:14;0.70;99.90
41664;DHT22;27353;50.906;7.248;2024-01-15T01:00:39;0.80;99.90
41664;DHT22;27353;50.906;7.248;2024-01-15T01:03:06;0.70;99.90
41664;DHT22;27353;50.906;7.248;2024-01-15T01:05:34;0.80;99.90
41664;DHT22;27353;50.906;7.248;2024-01-15T01:07:59;0.80;99.90
41664;DHT22;27353;50.906;7.248;2024-01-15T01:10:25;0.80;99.90
41664;DHT22;27353;50.906;7.248;2024-01-15T01:12:51;0.70;99.90
41664;DHT22;27353;50.906;7.248;2024-01-15T01:15:16;0.80;99.90
41664;DHT22;27353;50.906;7.248;2024-01-15T01:17:42;0.70;99.90
41664;DHT22;27353;50.906;7.248;2024-01-15T01:20:08;0.70;99.90
41664;DHT22;27353;50.906;7.248;2024-01-15T01:22:36;0.80;99.90
41664;DHT22;27353;50.906;7.248;2024-01-15T01:25:02;0.80;99.90
41664;DHT22;27353;50.906;7.248;2024-01-15T01:27:27;0.70;99.90
41664;DHT22;27353;50.906;7.248;2024-01-15T01:29:53;0.70;99.90
41664;DHT22;27353;50.906;7.248;2024-01-15T01:32:19;0.70;99.90
41664;DHT22;27353;50.906;7.248;2024-01-15T01:34:45;0.70;99.90
41664;DHT22;27353;50.906;7.248;2024-01-15T01:37:11;0.70;99.90
41664;DHT22;27353;50.906;7.248;2024-01-15T01:39:41;0.70;99.90
41664;DHT22;27353;50.906;7.248;2024-01-15T01:42:07;0.80;99.90
41664;DHT22;27353;50.906;7.248;2024-01-15T01:44:32;0.80;99.90
41664;DHT22;27353;50.906;7.248;2024-01-15T01:46:59;0.70;99.90
41664;DHT22;27353;50.906;7.248;2024-01-15T01:49:27;0.80;99.90
41664;DHT22;27353;50.906;7.248;2024-01-15T01:51:57;0.80;99.90
41664;DHT22;27353;50.906;7.248;2024-01-15T01:54:23;0.80;99.90
41664;DHT22;27353;50.906;7.248;2024-01-15T01:56:51;0.80;99.90
41664;DHT22;27353;50.906;7.248;2024-01-15T01:59:16;0.80;99.90
41664;DHT22;27353;50.906;7.248;2024-01-15T02:01:43;0.80;99.90
41664;DHT22;27353;50.906;7.248;2024-01-15T02:04:10;0.80;99.90
41664;DHT22;27353;50.906;7.248;2024-01-15T02:06:35;0.80;99.90
41664;DHT22;27353;50.906;7.248;2024-01-15T02:09:01;0.80;99.90
41664;DHT22;27353;50.906;7.248;2024-01-15T02:11:27;0.80;99.90
41664;DHT22;27353;50.906;7.248;2024-01-15T02:13:53;0.80;99.90
41664;DHT22;27353;50.906;7.248;2024-01-15T02:16:18;0.80;99.90
41664;DHT22;27353;50.906;7.248;2024-01-15T02:18:45;0.80;99.90
41664;DHT22;27353;50.906;7.248;2024-01-15T02:21:11;0.80;99.90
41664;DHT22;27353;50.906;7.248;2024-01-15T02:23:38;0.80;99.90
41664;DHT22;27353;50.906;7.248;2024-01-15T02:26:05;0.80;99.90
41664;DHT22;27353;50.906;7.248;2024-01-15T02:28:30;0.80;99.90
41664;DHT22;27353;50.906;7.248;2024-01-15T02:30:57;0.90;99.90
41664;DHT22;27353;50.906;7.248;2024-01-15T02:33:23;0.80;99.90
41664;DHT22;27353;50.906;7.248;2024-01-15T02:35:49;0.90;99.90
41664;DHT22;27353;50.906;7.248;2024-01-15T02:38:16;0.90;99.90
41664;DHT22;27353;50.906;7.248;2024-01-15T02:40:42;0.90;99.90
41664;DHT22;27353;50.906;7.248;2024-01-15T02:43:08;0.90;99.90
41664;DHT22;27353;50.906;7.248;2024-01-15T02:45:34;0.90;99.90
41664;DHT22;27353;50.906;7.248;2024-01-15T02:47:59;0.90;99.90
41664;DHT22;27353;50.906;7.248;2024-01-15T02:50:25;0.90;99.90
41664;DHT22;27353;50.906;7.248;2024-01-15T02:52:51;1.00;99.90
41664;DHT22;27353;50.906;7.248;2024-01-15T02:55:16;1.00;99.90
41664;DHT22;27353;50.906;7.248;2024-01-15T02:57:42;1.00;99.90
41664;DHT22;27353;50.906;7.248;2024-01-15T03:00:08;1.00;99.90
41664;DHT22;27353;50.906;7.248;2024-01-15T03:02:37;0.90;99.90
41664;DHT22;27353;50.906;7.248;2024-01-15T03:05:08;0.90;99.90
41664;DHT22;27353;50.906;7.248;2024-01-15T03:07:33;0.90;99.90
41664;DHT22;27353;50.906;7.248;2024-01-15T03:09:59;0.90;99.90
41664;DHT22;27353;50.906;7.248;2024-01-15T03:12:25;1.00;99.90
41664;DHT22;27353;50.906;7.248;2024-01-15T03:14:50;1.00;99.90
41664;DHT22;27353;50.906;7.248;2024-01-15T03:17:16;1.00;99.90
41664;DHT22;27353;50.906;7.248;2024-01-15T03:19:42;0.90;99.90
41664;DHT22;27353;50.906;7.248;2024-01-15T03:22:07;0.90;99.90
41664;DHT22;27353;50.906;7.248;2024-01-15T03:24:34;1.00;99.90
41664;DHT22;27353;50.906;7.248;2024-01-15T03:27:00;0.90;99.90
41664;DHT22;27353;50.906;7.248;2024-01-15T03:29:26;0.90;99.90
41664;DHT22;27353;50.906;7.248;2024-01-15T03:31:52;0.90;99.90
41664;DHT22;27353;50.906;7.248;2024-01-15T03:34:18;1.00;99.90
41664;DHT22;27353;50.906;7.248;2024-01-15T03:36:43;1.00;99.90
41664;DHT22;27353;50.906;7.248;2024-01-15T03:39:09;1.00;99.90
41664;DHT22;27353;50.906;7.248;2024-01-15T03:41:35;1.00;99.90
41664;DHT22;27353;50.906;7.248;2024-01-15T03:44:00;1.00;99.90
41664;DHT22;27353;50.906;7.248;2024-01-15T03:46:27;1.00;99.90
41664;DHT22;27353;50.906;7.248;2024-01-15T03:48:52;1.00;99.90
41664;DHT22;27353;50.906;7.248;2024-01-15T03:51:18;1.00;99.90
41664;DHT22;27353;50.906;7.248;2024-01-15T03:53:44;0.90;99.90
41664;DHT22;27353;50.906;7.248;2024-01-15T03:56:10;1.00;99.90
41664;DHT22;27353;50.906;7.248;2024-01-15T03:58:35;1.00;99.90
41664;DHT22;27353;50.906;7.248;2024-01-15T04:01:01;1.00;99.90
41664;DHT22;27353;50.906;7.248;2024-01-15T04:03:27;1.00;99.90
41664;DHT22;27353;50.906;7.248;2024-01-15T04:05:52;1.00;99.90
41664;DHT22;27353;50.906;7.248;2024-01-15T04:08:18;1.00;99.90
41664;DHT22;27353;50.906;7.248;2024-01-15T04:10:43;1.10;99.90
41664;DHT22;27353;50.906;7.248;2024-01-15T04:13:09;1.00;99.90
41664;DHT22;27353;50.906;7.248;2024-01-15T04:15:34;1.10;99.90
41664;DHT22;27353;50.906;7.248;2024-01-15T04:18:02;1.10;99.90
41664;DHT22;27353;50.906;7.248;2024-01-15T04:20:28;1.10;99.90
41664;DHT22;27353;50.906;7.248;2024-01-15T04:22:54;1.10;99.90
41664;DHT22;27353;50.906;7.248;2024-01-15T04:25:19;1.10;99.90
41664;DHT22;27353;50.906;7.248;2024-01-15T04:27:45;1.10;99.90
41664;DHT22;27353;50.906;7.248;2024-01-15T04:30:11;1.10;99.90
41664;DHT22;27353;50.906;7.248;2024-01-15T04:32:36;1.10;99.90
41664;DHT22;27353;50.906;7.248;2024-01-15T04:35:02;1.10;99.90
41664;DHT22;27353;50.906;7.248;2024-01-15T04:37:28;1.10;99.90
41664;DHT22;27353;50.906;7.248;2024-01-15T04:39:53;1.10;99.90
41664;DHT22;27353;50.906;7.248;2024-01-15T04:42:23;1.10;99.90
41664;DHT22;27353;50.906;7.248;2024-01-15T04:44:49;1.10;99.90
41664;DHT22;27353;50.906;7.248;2024-01-15T04:47:15;1.10;99.90
41664;DHT22;27353;50.906;7.248;2024-01-15T04:49:41;1.00;99.90
41664;DHT22;27353;50.906;7.248;2024-01-15T04:52:06;1.00;99.90
41664;DHT22;27353;50.906;7.248;2024-01-15T04:54:32;1.00;99.90
41664;DHT22;27353;50.906;7.248;2024-01-15T04:56:57;1.10;99.90
41664;DHT22;27353;50.906;7.248;2024-01-15T04:59:23;1.00;99.90
41664;DHT22;27353;50.906;7.248;2024-01-15T05:01:49;1.00;99.90
41664;DHT22;27353;50.906;7.248;2024-01-15T05:04:15;1.00;99.90
41664;DHT22;27353;50.906;7.248;2024-01-15T05:06:40;1.00;99.90
41664;DHT22;27353;50.906;7.248;2024-01-15T05:09:06;1.10;99.90
41664;DHT22;27353;50.906;7.248;2024-01-15T05:11:32;1.10;99.90
41664;DHT22;27353;50.906;7.248;2024-01-15T05:13:58;1.10;99.90
41664;DHT22;27353;50.906;7.248;2024-01-15T05:16:23;1.10;99.90
41664;DHT22;27353;50.906;7.248;2024-01-15T05:18:49;1.10;99.90
41664;DHT22;27353;50.906;7.248;2024-01-15T05:21:15;1.10;99.90
41664;DHT22;27353;50.906;7.248;2024-01-15T05:23:40;1.10;99.90
41664;DHT22;27353;50.906;7.248;2024-01-15T05:26:06;1.10;99.90
41664;DHT22;27353;50.906;7.248;2024-01-15T05:28:34;1.10;99.90
41664;DHT22;27353;50.906;7.248;2024-01-15T05:31:00;1.10;99.90
41664;DHT22;27353;50.906;7.248;2024-01-15T05:33:25;1.10;99.90
41664;DHT22;27353;50.906;7.248;2024-01-15T05:35:51;1.10;99.90
41664;DHT22;27353;50.906;7.248;2024-01-15T05:38:17;1.10;99.90
41664;DHT22;27353;50.906;7.248;2024-01-15T05:40:43;1.10;99.90
41664;DHT22;27353;50.906;7.248;2024-01-15T05:43:08;1.10;99.90
41664;DHT22;27353;50.906;7.248;2024-01-15T05:45:35;1.10;99.90
41664;DHT22;27353;50.906;7.248;2024-01-15T05:48:01;1.10;99.90
41664;DHT22;27353;50.906;7.248;2024-01-15T05:50:27;1.10;99.90
41664;DHT22;27353;50.906;7.248;2024-01-15T05:52:52;1.10;99.90
41664;DHT22;27353;50.906;7.248;2024-01-15T05:55:18;1.20;99.90
41664;DHT22;27353;50.906;7.248;2024-01-15T05:57:44;1.20;99.90
41664;DHT22;27353;50.906;7.248;2024-01-15T06:00:11;1.20;99.90
41664;DHT22;27353;50.906;7.248;2024-01-15T06:02:40;1.20;99.90
41664;DHT22;27353;50.906;7.248;2024-01-15T06:05:06;1.20;99.90
41664;DHT22;27353;50.906;7.248;2024-01-15T06:07:34;1.20;99.90
41664;DHT22;27353;50.906;7.248;2024-01-15T06:09:59;1.20;99.90
41664;DHT22;27353;50.906;7.248;2024-01-15T06:12:25;1.20;99.90
41664;DHT22;27353;50.906;7.248;2024-01-15T06:14:51;1.20;99.90
41664;DHT22;27353;50.906;7.248;2024-01-15T06:17:17;1.20;99.90
41664;DHT22;27353;50.906;7.248;2024-01-15T06:19:43;1.20;99.90
41664;DHT22;27353;50.906;7.248;2024-01-15T06:22:08;1.20;99.90
41664;DHT22;27353;50.906;7.248;2024-01-15T06:24:34;1.20;99.90
41664;DHT22;27353;50.906;7.248;2024-01-15T06:27:00;1.30;99.90
41664;DHT22;27353;50.906;7.248;2024-01-15T06:29:26;1.20;99.90
41664;DHT22;27353;50.906;7.248;2024-01-15T06:31:54;1.20;99.90
41664;DHT22;27353;50.906;7.248;2024-01-15T06:34:20;1.10;99.90
41664;DHT22;27353;50.906;7.248;2024-01-15T06:36:46;1.10;99.90
41664;DHT22;27353;50.906;7.248;2024-01-15T06:39:12;1.10;99.90
41664;DHT22;27353;50.906;7.248;2024-01-15T06:41:37;1.10;99.90
41664;DHT22;27353;50.906;7.248;2024-01-15T06:44:09;1.10;99.90
41664;DHT22;27353;50.906;7.248;2024-01-15T06:46:35;1.10;99.90
41664;DHT22;27353;50.906;7.248;2024-01-15T06:49:01;1.20;99.90
41664;DHT22;27353;50.906;7.248;2024-01-15T06:51:27;1.10;99.90
41664;DHT22;27353;50.906;7.248;2024-01-15T06:53:52;1.10;99.90
41664;DHT22;27353;50.906;7.248;2024-01-15T06:56:18;1.20;99.90
41664;DHT22;27353;50.906;7.248;2024-01-15T06:58:43;1.20;99.90
41664;DHT22;27353;50.906;7.248;2024-01-15T07:01:09;1.20;99.90
41664;DHT22;27353;50.906;7.248;2024-01-15T07:03:35;1.20;99.90
41664;DHT22;27353;50.906;7.248;2024-01-15T07:06:01;1.30;99.90
41664;DHT22;27353;50.906;7.248;2024-01-15T07:08:26;1.20;99.90
41664;DHT22;27353;50.906;7.248;2024-01-15T07:10:52;1.30;99.90
41664;DHT22;27353;50.906;7.248;2024-01-15T07:13:18;1.20;99.90
41664;DHT22;27353;50.906;7.248;2024-01-15T07:15:43;1.20;99.90
41664;DHT22;27353;50.906;7.248;2024-01-15T07:18:09;1.20;99.90
41664;DHT22;27353;50.906;7.248;2024-01-15T07:20:34;1.20;99.90
41664;DHT22;27353;50.906;7.248;2024-01-15T07:23:00;1.20;99.90
41664;DHT22;27353;50.906;7.248;2024-01-15T07:25:26;1.20;99.90
41664;DHT22;27353;50.906;7.248;2024-01-15T07:27:52;1.20;99.90
41664;DHT22;27353;50.906;7.248;2024-01-15T07:30:19;1.20;99.90
41664;DHT22;27353;50.906;7.248;2024-01-15T07:32:47;1.20;99.90
41664;DHT22;27353;50.906;7.248;2024-01-15T07:35:14;1.20;99.90
41664;DHT22;27353;50.906;7.248;2024-01-15T07:37:40;1.20;99.90
41664;DHT22;27353;50.906;7.248;2024-01-15T07:40:07;1.20;99.90
41664;DHT22;27353;50.906;7.248;2024-01-15T07:42:34;1.20;99.90
41664;DHT22;27353;50.906;7.248;2024-01-15T07:45:00;1.20;99.90
41664;DHT22;27353;50.906;7.248;2024-01-15T07:47:26;1.20;99.90
41664;DHT22;27353;50.906;7.248;2024-01-15T07:49:53;1.20;99.90
41664;DHT22;27353;50.906;7.248;2024-01-15T07:52:18;1.30;99.90
41664;DHT22;27353;50.906;7.248;2024-01-15T07:54:44;1.20;99.90
41664;DHT22;27353;50.906;7.248;2024-01-15T07:57:10;1.30;99.90
41664;DHT22;27353;50.906;7.248;2024-01-15T07:59:36;1.30;99.90
41664;DHT22;27353;50.906;7.248;2024-01-15T08:02:02;1.30;99.90
41664;DHT22;27353;50.906;7.248;2024-01-15T08:04:27;1.30;99.90
41664;DHT22;27353;50.906;7.248;2024-01-15T08:06:53;1.30;99.90
41664;DHT22;27353;50.906;7.248;2024-01-15T08:09:19;1.30;99.90
41664;DHT22;27353;50.906;7.248;2024-01-15T08:11:44;1.30;99.90
41664;DHT22;27353;50.906;7.248;2024-01-15T08:14:10;1.30;99.90
41664;DHT22;27353;50.906;7.248;2024-01-15T08:16:37;1.30;99.90
41664;DHT22;27353;50.906;7.248;2024-01-15T08:19:03;1.30;99.90
41664;DHT22;27353;50.906;7.248;2024-01-15T08:21:29;1.30;99.90
41664;DHT22;27353;50.906;7.248;2024-01-15T08:24:04;1.30;99.90
41664;DHT22;27353;50.906;7.248;2024-01-15T08:26:30;1.30;99.90
41664;DHT22;27353;50.906;7.248;2024-01-15T08:28:55;1.30;99.90
41664;DHT22;27353;50.906;7.248;2024-01-15T08:31:21;1.30;99.90
41664;DHT22;27353;50.906;7.248;2024-01-15T08:33:47;1.40;99.90
41664;DHT22;27353;50.906;7.248;2024-01-15T08:36:12;1.40;99.90
41664;DHT22;27353;50.906;7.248;2024-01-15T08:38:38;1.40;99.90
41664;DHT22;27353;50.906;7.248;2024-01-15T08:41:04;1.40;99.90
41664;DHT22;27353;50.906;7.248;2024-01-15T08:43:30;1.40;99.90
41664;DHT22;27353;50.906;7.248;2024-01-15T08:45:56;1.40;99.90
41664;DHT22;27353;50.906;7.248;2024-01-15T08:48:22;1.40;99.90
41664;DHT22;27353;50.906;7.248;2024-01-15T08:50:48;1.40;99.90
41664;DHT22;27353;50.906;7.248;2024-01-15T08:53:14;1.50;99.90
41664;DHT22;27353;50.906;7.248;2024-01-15T08:55:40;1.40;99.90
41664;DHT22;27353;50.906;7.248;2024-01-15T08:58:08;1.50;99.90
41664;DHT22;27353;50.906;7.248;2024-01-15T09:00:34;1.50;99.90
41664;DHT22;27353;50.906;7.248;2024-01-15T09:02:59;1.40;99.90
41664;DHT22;27353;50.906;7.248;2024-01-15T09:05:25;1.50;99.90
41664;DHT22;27353;50.906;7.248;2024-01-15T09:07:51;1.50;99.90
41664;DHT22;27353;50.906;7.248;2024-01-15T09:10:20;1.50;99.90
41664;DHT22;27353;50.906;7.248;2024-01-15T09:12:46;1.50;99.90
41664;DHT22;27353;50.906;7.248;2024-01-15T09:15:11;1.50;99.90
41664;DHT22;27353;50.906;7.248;2024-01-15T09:17:37;1.40;99.90
41664;DHT22;27353;50.906;7.248;2024-01-15T09:20:03;1.50;99.90
41664;DHT22;27353;50.906;7.248;2024-01-15T09:22:31;1.50;99.90
41664;DHT22;27353;50.906;7.248;2024-01-15T09:24:56;1.50;99.90
41664;DHT22;27353;50.906;7.248;2024-01-15T09:27:22;1.50;99.90
41664;DHT22;27353;50.906;7.248;2024-01-15T09:29:48;1.50;99.90
41664;DHT22;27353;50.906;7.248;2024-01-15T09:32:13;1.50;99.90
41664;DHT22;27353;50.906;7.248;2024-01-15T09:34:39;1.40;99.90
41664;DHT22;27353;50.906;7.248;2024-01-15T09:37:05;1.50;99.90
41664;DHT22;27353;50.906;7.248;2024-01-15T09:39:31;1.50;99.90
41664;DHT22;27353;50.906;7.248;2024-01-15T09:41:57;1.40;99.90
41664;DHT22;27353;50.906;7.248;2024-01-15T09:44:23;1.30;99.90
41664;DHT22;27353;50.906;7.248;2024-01-15T09:46:49;1.40;99.90
41664;DHT22;27353;50.906;7.248;2024-01-15T09:49:18;1.30;99.90
41664;DHT22;27353;50.906;7.248;2024-01-15T09:51:44;1.30;99.90
41664;DHT22;27353;50.906;7.248;2024-01-15T09:54:10;1.30;99.90
41664;DHT22;27353;50.906;7.248;2024-01-15T09:56:39;1.30;99.90
41664;DHT22;27353;50.906;7.248;2024-01-15T09:59:04;1.30;99.90
41664;DHT22;27353;50.906;7.248;2024-01-15T10:01:32;1.30;99.90
41664;DHT22;27353;50.906;7.248;2024-01-15T10:03:58;1.30;99.90
41664;DHT22;27353;50.906;7.248;2024-01-15T10:06:26;1.20;99.90
41664;DHT22;27353;50.906;7.248;2024-01-15T10:08:54;1.20;99.90
41664;DHT22;27353;50.906;7.248;2024-01-15T10:11:21;1.30;99.90
41664;DHT22;27353;50.906;7.248;2024-01-15T10:13:47;1.30;99.90
41664;DHT22;27353;50.906;7.248;2024-01-15T10:16:17;1.30;99.90
41664;DHT22;27353;50.906;7.248;2024-01-15T10:18:43;1.30;99.90
41664;DHT22;27353;50.906;7.248;2024-01-15T10:21:08;1.30;99.90
41664;DHT22;27353;50.906;7.248;2024-01-15T10:23:34;1.30;99.90
41664;DHT22;27353;50.906;7.248;2024-01-15T10:26:00;1.30;99.90
41664;DHT22;27353;50.906;7.248;2024-01-15T10:28:26;1.30;99.90
41664;DHT22;27353;50.906;7.248;2024-01-15T10:30:57;1.40;99.90
41664;DHT22;27353;50.906;7.248;2024-01-15T10:33:23;1.40;99.90
41664;DHT22;27353;50.906;7.248;2024-01-15T10:35:56;1.40;99.90
41664;DHT22;27353;50.906;7.248;2024-01-15T10:38:22;1.40;99.90
41664;DHT22;27353;50.906;7.248;2024-01-15T10:40:51;1.40;99.90
41664;DHT22;27353;50.906;7.248;2024-01-15T10:43:17;1.30;99.90
41664;DHT22;27353;50.906;7.248;2024-01-15T10:45:47;1.30;99.90
41664;DHT22;27353;50.906;7.248;2024-01-15T10:48:13;1.30;99.90
41664;DHT22;27353;50.906;7.248;2024-01-15T10:50:39;1.30;99.90
41664;DHT22;27353;50.906;7.248;2024-01-15T10:53:05;1.30;99.90
41664;DHT22;27353;50.906;7.248;2024-01-15T10:55:31;1.40;99.90
41664;DHT22;27353;50.906;7.248;2024-01-15T10:57:59;1.40;99.90
41664;DHT22;27353;50.906;7.248;2024-01-15T11:00:25;1.40;99.90
41664;DHT22;27353;50.906;7.248;2024-01-15T11:02:51;1.40;99.90
41664;DHT22;27353;50.906;7.248;2024-01-15T11:05:21;1.40;99.90
41664;DHT22;27353;50.906;7.248;2024-01-15T11:07:49;1.40;99.90
41664;DHT22;27353;50.906;7.248;2024-01-15T11:10:42;1.50;99.90
41664;DHT22;27353;50.906;7.248;2024-01-15T11:15:56;1.50;99.90
41664;DHT22;27353;50.906;7.248;2024-01-15T11:18:22;1.50;99.90
41664;DHT22;27353;50.906;7.248;2024-01-15T11:23:45;1.50;99.90
41664;DHT22;27353;50.906;7.248;2024-01-15T11:28:59;1.70;99.90
41664;DHT22;27353;50.906;7.248;2024-01-15T11:34:01;1.80;99.90
41664;DHT22;27353;50.906;7.248;2024-01-15T11:42:00;1.80;99.90
41664;DHT22;27353;50.906;7.248;2024-01-15T11:44:27;1.70;99.90
41664;DHT22;27353;50.906;7.248;2024-01-15T11:47:00;1.70;99.90
41664;DHT22;27353;50.906;7.248;2024-01-15T11:52:11;1.70;99.90
41664;DHT22;27353;50.906;7.248;2024-01-15T11:54:41;1.70;99.90
41664;DHT22;27353;50.906;7.248;2024-01-15T11:57:20;1.70;99.90
41664;DHT22;27353;50.906;7.248;2024-01-15T11:59:48;1.50;99.90
41664;DHT22;27353;50.906;7.248;2024-01-15T12:02:14;1.50;99.90
41664;DHT22;27353;50.906;7.248;2024-01-15T12:04:40;1.60;99.90
41664;DHT22;27353;50.906;7.248;2024-01-15T12:07:05;1.50;99.90
41664;DHT22;27353;50.906;7.248;2024-01-15T12:09:31;1.50;99.90
41664;DHT22;27353;50.906;7.248;2024-01-15T12:15:04;1.40;99.90
41664;DHT22;27353;50.906;7.248;2024-01-15T12:17:30;1.40;99.90
41664;DHT22;27353;50.906;7.248;2024-01-15T12:19:57;1.40;99.90
41664;DHT22;27353;50.906;7.248;2024-01-15T12:22:22;1.40;99.90
41664;DHT22;27353;50.906;7.248;2024-01-15T12:24:48;1.40;99.90
41664;DHT22;27353;50.906;7.248;2024-01-15T12:27:14;1.40;99.90
41664;DHT22;27353;50.906;7.248;2024-01-15T12:29:40;1.40;99.90
41664;DHT22;27353;50.906;7.248;2024-01-15T12:32:05;1.40;99.90
41664;DHT22;27353;50.906;7.248;2024-01-15T12:34:33;1.40;99.90
41664;DHT22;27353;50.906;7.248;2024-01-15T12:36:59;1.40;99.90
41664;DHT22;27353;50.906;7.248;2024-01-15T12:39:25;1.40;99.90
41664;DHT22;27353;50.906;7.248;2024-01-15T12:41:51;1.50;99.90
41664;DHT22;27353;50.906;7.248;2024-01-15T12:44:17;1.70;99.90
41664;DHT22;27353;50.906;7.248;2024-01-15T12:46:43;1.70;99.90
41664;DHT22;27353;50.906;7.248;2024-01-15T12:49:08;1.90;99.90
41664;DHT22;27353;50.906;7.248;2024-01-15T12:51:34;1.80;99.90
41664;DHT22;27353;50.906;7.248;2024-01-15T12:54:00;1.90;99.90
41664;DHT22;27353;50.906;7.248;2024-01-15T12:56:25;1.90;99.90
41664;DHT22;27353;50.906;7.248;2024-01-15T12:58:51;1.80;99.90
41664;DHT22;27353;50.906;7.248;2024-01-15T13:01:17;1.80;99.90
41664;DHT22;27353;50.906;7.248;2024-01-15T13:03:42;1.80;99.90
41664;DHT22;27353;50.906;7.248;2024-01-15T13:06:08;1.90;99.90
41664;DHT22;27353;50.906;7.248;2024-01-15T13:08:34;1.90;99.90
41664;DHT22;27353;50.906;7.248;2024-01-15T13:11:00;1.90;99.90
41664;DHT22;27353;50.906;7.248;2024-01-15T13:13:25;1.80;99.90
41664;DHT22;27353;50.906;7.248;2024-01-15T13:15:51;1.90;99.90
41664;DHT22;27353;50.906;7.248;2024-01-15T13:18:17;1.80;99.90
41664;DHT22;27353;50.906;7.248;2024-01-15T13:20:43;1.80;99.90
41664;DHT22;27353;50.906;7.248;2024-01-15T13:23:09;1.80;99.90
41664;DHT22;27353;50.906;7.248;2024-01-15T13:25:35;1.80;99.90
41664;DHT22;27353;50.906;7.248;2024-01-15T13:28:04;1.80;99.90
41664;DHT22;27353;50.906;7.248;2024-01-15T13:30:30;1.70;99.90
41664;DHT22;27353;50.906;7.248;2024-01-15T13:32:57;1.70;99.90
41664;DHT22;27353;50.906;7.248;2024-01-15T13:35:23;1.70;99.90
41664;DHT22;27353;50.906;7.248;2024-01-15T13:37:49;1.60;99.90
41664;DHT22;27353;50.906;7.248;2024-01-15T13:40:14;1.70;99.90
41664;DHT22;27353;50.906;7.248;2024-01-15T13:42:45;1.70;99.90
41664;DHT22;27353;50.906;7.248;2024-01-15T13:45:11;1.70;99.90
41664;DHT22;27353;50.906;7.248;2024-01-15T13:47:42;1.80;99.90
41664;DHT22;27353;50.906;7.248;2024-01-15T13:50:09;1.80;99.90
41664;DHT22;27353;50.906;7.248;2024-01-15T13:52:35;1.80;99.90
41664;DHT22;27353;50.906;7.248;2024-01-15T13:55:01;1.80;99.90
41664;DHT22;27353;50.906;7.248;2024-01-15T13:57:27;1.80;99.90
41664;DHT22;27353;50.906;7.248;2024-01-15T13:59:53;1.90;99.90
41664;DHT22;27353;50.906;7.248;2024-01-15T14:02:18;1.80;99.90
41664;DHT22;27353;50.906;7.248;2024-01-15T14:04:45;1.80;99.90
41664;DHT22;27353;50.906;7.248;2024-01-15T14:07:11;1.80;99.90
41664;DHT22;27353;50.906;7.248;2024-01-15T14:09:37;1.90;99.90
41664;DHT22;27353;50.906;7.248;2024-01-15T14:12:03;1.90;99.90
41664;DHT22;27353;50.906;7.248;2024-01-15T14:14:29;1.80;99.90
41664;DHT22;27353;50.906;7.248;2024-01-15T14:16:54;1.70;99.90
41664;DHT22;27353;50.906;7.248;2024-01-15T14:19:20;1.70;99.90
41664;DHT22;27353;50.906;7.248;2024-01-15T14:21:46;1.70;99.90
41664;DHT22;27353;50.906;7.248;2024-01-15T14:24:12;1.70;99.90
41664;DHT22;27353;50.906;7.248;2024-01-15T14:26:37;1.70;99.90
41664;DHT22;27353;50.906;7.248;2024-01-15T14:29:03;1.70;99.90
41664;DHT22;27353;50.906;7.248;2024-01-15T14:31:28;1.60;99.90
41664;DHT22;27353;50.906;7.248;2024-01-15T14:33:54;1.60;99.90
41664;DHT22;27353;50.906;7.248;2024-01-15T14:36:23;1.60;99.90
41664;DHT22;27353;50.906;7.248;2024-01-15T14:38:49;1.50;99.90
41664;DHT22;27353;50.906;7.248;2024-01-15T14:41:15;1.50;99.90
41664;DHT22;27353;50.906;7.248;2024-01-15T14:43:42;1.50;99.90
41664;DHT22;27353;50.906;7.248;2024-01-15T14:46:08;1.50;99.90
41664;DHT22;27353;50.906;7.248;2024-01-15T14:48:33;1.40;99.90
41664;DHT22;27353;50.906;7.248;2024-01-15T14:50:59;1.40;99.90
41664;DHT22;27353;50.906;7.248;2024-01-15T14:53:24;1.40;99.90
41664;DHT22;27353;50.906;7.248;2024-01-15T14:55:50;1.40;99.90
41664;DHT22;27353;50.906;7.248;2024-01-15T14:58:16;1.40;99.90
41664;DHT22;27353;50.906;7.248;2024-01-15T15:00:41;1.40;99.90
41664;DHT22;27353;50.906;7.248;2024-01-15T15:03:07;1.40;99.90
41664;DHT22;27353;50.906;7.248;2024-01-15T15:05:32;1.50;99.90
41664;DHT22;27353;50.906;7.248;2024-01-15T15:07:58;1.40;99.90
41664;DHT22;27353;50.906;7.248;2024-01-15T15:10:24;1.50;99.90
41664;DHT22;27353;50.906;7.248;2024-01-15T15:12:49;1.50;99.90
41664;DHT22;27353;50.906;7.248;2024-01-15T15:15:15;1.50;99.90
41664;DHT22;27353;50.906;7.248;2024-01-15T15:17:42;1.50;99.90
41664;DHT22;27353;50.906;7.248;2024-01-15T15:20:08;1.50;99.90
41664;DHT22;27353;50.906;7.248;2024-01-15T15:22:34;1.60;99.90
41664;DHT22;27353;50.906;7.248;2024-01-15T15:24:59;1.50;99.90
41664;DHT22;27353;50.906;7.248;2024-01-15T15:27:25;1.50;99.90
41664;DHT22;27353;50.906;7.248;2024-01-15T15:29:53;1.50;99.90
41664;DHT22;27353;50.906;7.248;2024-01-15T15:32:19;1.50;99.90
41664;DHT22;27353;50.906;7.248;2024-01-15T15:34:44;1.50;99.90
41664;DHT22;27353;50.906;7.248;2024-01-15T15:37:11;1.40;99.90
41664;DHT22;27353;50.906;7.248;2024-01-15T15:39:37;1.40;99.90
41664;DHT22;27353;50.906;7.248;2024-01-15T15:42:03;1.40;99.90
41664;DHT22;27353;50.906;7.248;2024-01-15T15:44:28;1.40;99.90
41664;DHT22;27353;50.906;7.248;2024-01-15T15:46:54;1.40;99.90
41664;DHT22;27353;50.906;7.248;2024-01-15T15:49:19;1.40;99.90
41664;DHT22;27353;50.906;7.248;2024-01-15T15:51:45;1.40;99.90
41664;DHT22;27353;50.906;7.248;2024-01-15T15:54:11;1.40;99.90
41664;DHT22;27353;50.906;7.248;2024-01-15T15:56:36;1.40;99.90
41664;DHT22;27353;50.906;7.248;2024-01-15T15:59:06;1.40;99.90
41664;DHT22;27353;50.906;7.248;2024-01-15T16:01:32;1.40;99.90